Time;durP1;ratioP1;P1;durP2;ratioP2;P2;SDS_P1;SDS_P2;PMS_P1;PMS_P2;Temp;Humidity;BMP_temperature;BMP_pressure;BME280_temperature;BME280_humidity;BME280_pressure;Samples;Min_cycle;Max_cycle;Signal;HPM_P1;HPM_P2
2021/07/02 00:00:00;;;;;;;1999.90;999.90;;;15.30;99.90;;;;;;5100176;28;20262;-84
2021/07/02 00:02:28;;;;;;;1999.90;999.90;;;15.40;99.90;;;;;;5098423;28;20146;-83
2021/07/02 00:04:53;;;;;;;1999.90;999.90;;;15.30;99.90;;;;;;5095774;28;20423;-83
2021/07/02 00:07:19;;;;;;;1999.90;999.90;;;15.30;99.90;;;;;;5095569;28;20822;-83
2021/07/02 00:09:45;;;;;;;1999.90;999.90;;;15.30;99.90;;;;;;5095365;28;20188;-83
2021/07/02 00:12:11;;;;;;;1999.90;999.90;;;15.20;99.90;;;;;;5095488;28;20235;-83
2021/07/02 00:14:41;;;;;;;1999.90;999.90;;;15.20;99.90;;;;;;5095244;28;20218;-83
2021/07/02 00:17:12;;;;;;;1999.90;999.90;;;15.20;99.90;;;;;;5095444;28;20202;-83
2021/07/02 00:19:38;;;;;;;1999.90;999.90;;;15.30;99.90;;;;;;5095163;28;20498;-83
2021/07/02 00:22:04;;;;;;;1999.90;999.90;;;15.30;99.90;;;;;;5095161;28;20936;-83
2021/07/02 00:24:30;;;;;;;1999.90;999.90;;;15.20;99.90;;;;;;5095135;28;20193;-83
2021/07/02 00:26:56;;;;;;;1999.90;999.90;;;15.30;99.90;;;;;;5094950;28;20431;-83
2021/07/02 00:29:22;;;;;;;1999.90;999.90;;;15.30;99.90;;;;;;5094740;28;20939;-83
2021/07/02 00:31:48;;;;;;;1999.90;999.90;;;15.20;99.90;;;;;;5095033;28;20572;-83
2021/07/02 00:34:17;;;;;;;1999.90;999.90;;;15.20;99.90;;;;;;5094883;28;20462;-83
2021/07/02 00:36:46;;;;;;;1999.90;999.90;;;15.20;99.90;;;;;;5094837;28;20449;-83
2021/07/02 00:39:24;;;;;;;1999.90;999.90;;;15.20;99.90;;;;;;5095014;28;20421;-83
2021/07/02 00:41:50;;;;;;;1999.90;999.90;;;15.20;99.90;;;;;;5077377;28;20530;-83
2021/07/02 00:44:35;;;;;;;1999.90;999.90;;;15.20;99.90;;;;;;5093465;28;20402;-83
2021/07/02 00:47:01;;;;;;;1999.90;999.90;;;15.20;99.90;;;;;;5093687;28;20163;-83
2021/07/02 00:49:30;;;;;;;1999.90;999.90;;;15.20;99.90;;;;;;5076703;28;20800;-83
2021/07/02 00:52:02;;;;;;;1999.90;999.90;;;15.20;99.90;;;;;;5094711;28;20167;-83
2021/07/02 00:54:42;;;;;;;1999.90;999.90;;;15.20;99.90;;;;;;5076717;28;20417;-83
2021/07/02 00:57:11;;;;;;;1999.90;999.90;;;15.30;99.90;;;;;;5076314;28;20534;-83
2021/07/02 00:59:41;;;;;;;1999.90;999.90;;;15.30;99.90;;;;;;5094666;28;20433;-83
2021/07/02 01:02:07;;;;;;;1999.90;999.90;;;15.30;99.90;;;;;;5077213;28;20408;-83
2021/07/02 01:04:35;;;;;;;1999.90;999.90;;;15.20;99.90;;;;;;5076708;28;20420;-83
2021/07/02 01:07:01;;;;;;;1999.90;999.90;;;15.20;99.90;;;;;;5076752;28;20422;-83
2021/07/02 01:09:27;;;;;;;1999.90;999.90;;;15.20;99.90;;;;;;5076356;28;20429;-83
2021/07/02 01:11:53;;;;;;;1999.90;999.90;;;15.20;99.90;;;;;;5076597;28;20422;-83
2021/07/02 01:14:19;;;;;;;1999.90;999.90;;;15.20;99.90;;;;;;5092751;28;20413;-83
2021/07/02 01:16:45;;;;;;;1999.90;999.90;;;15.20;99.90;;;;;;5081595;28;20449;-84
2021/07/02 01:19:14;;;;;;;1999.90;999.90;;;15.20;99.90;;;;;;5095136;28;20497;-84
2021/07/02 01:21:40;;;;;;;1999.90;999.90;;;15.10;99.90;;;;;;5081824;28;20168;-84
2021/07/02 01:24:09;;;;;;;1999.90;999.90;;;15.10;99.90;;;;;;5099457;28;20402;-84
2021/07/02 01:26:35;;;;;;;1999.90;999.90;;;15.00;99.90;;;;;;5098752;28;20496;-84
2021/07/02 01:29:04;;;;;;;1999.90;999.90;;;15.00;99.90;;;;;;5097504;28;20491;-84
2021/07/02 01:31:29;;;;;;;1999.90;999.90;;;14.90;99.90;;;;;;5098941;28;20417;-84
2021/07/02 01:33:55;;;;;;;1999.90;999.90;;;14.90;99.90;;;;;;5099416;28;20402;-85
2021/07/02 01:36:23;;;;;;;1999.90;999.90;;;14.90;99.90;;;;;;5098525;28;20202;-84
2021/07/02 01:38:55;;;;;;;1999.90;999.90;;;14.90;99.90;;;;;;5098805;28;20167;-84
2021/07/02 01:41:21;;;;;;;1999.90;999.90;;;14.90;99.90;;;;;;5081782;28;20441;-84
2021/07/02 01:43:47;;;;;;;1999.90;999.90;;;14.90;99.90;;;;;;5081297;28;20402;-84
2021/07/02 01:46:13;;;;;;;1999.90;999.90;;;14.80;99.90;;;;;;5098896;28;20254;-84
2021/07/02 01:48:42;;;;;;;1999.90;999.90;;;14.80;99.90;;;;;;5099025;28;20643;-84
2021/07/02 01:51:10;;;;;;;1999.90;999.90;;;14.70;99.90;;;;;;5098658;28;20413;-85
2021/07/02 01:53:38;;;;;;;1999.90;999.90;;;14.70;99.90;;;;;;5081404;28;20406;-85
2021/07/02 01:56:08;;;;;;;1999.90;999.90;;;14.70;99.90;;;;;;5098520;28;20505;-85
2021/07/02 01:58:33;;;;;;;1999.90;999.90;;;14.70;99.90;;;;;;5098491;28;20393;-85
2021/07/02 02:00:59;;;;;;;1999.90;999.90;;;14.70;99.90;;;;;;5098013;28;20452;-84
2021/07/02 02:03:25;;;;;;;1999.90;999.90;;;14.70;99.90;;;;;;5098630;28;20167;-85
2021/07/02 02:05:54;;;;;;;1999.90;999.90;;;14.70;99.90;;;;;;5098346;28;20436;-84
2021/07/02 02:08:26;;;;;;;1999.90;999.90;;;14.60;99.90;;;;;;5098730;28;20572;-84
2021/07/02 02:10:55;;;;;;;1999.90;999.90;;;14.60;99.90;;;;;;5098618;28;20440;-84
2021/07/02 02:13:24;;;;;;;1999.90;999.90;;;14.60;99.90;;;;;;5098262;28;20411;-84
2021/07/02 02:15:52;;;;;;;1999.90;999.90;;;14.60;99.90;;;;;;5096872;28;20454;-84
2021/07/02 02:18:18;;;;;;;1999.90;999.90;;;14.50;99.90;;;;;;5161041;22;20481;-84
2021/07/02 02:20:46;;;;;;;1999.90;999.90;;;14.50;99.90;;;;;;5096526;28;20429;-84
2021/07/02 02:23:12;;;;;;;1999.90;999.90;;;14.40;99.90;;;;;;5097093;28;20934;-84
2021/07/02 02:25:38;;;;;;;1999.90;999.90;;;14.40;99.90;;;;;;5101878;28;20389;-84
2021/07/02 02:28:06;;;;;;;1999.90;999.90;;;14.40;99.90;;;;;;5102570;28;20217;-84
2021/07/02 02:30:35;;;;;;;1999.90;999.90;;;14.40;99.90;;;;;;5102526;28;20186;-84
2021/07/02 02:33:03;;;;;;;1999.90;999.90;;;14.40;99.90;;;;;;5102641;28;20494;-84
2021/07/02 02:35:29;;;;;;;1999.90;999.90;;;14.30;99.90;;;;;;5101391;28;20760;-84
2021/07/02 02:37:55;;;;;;;1999.90;999.90;;;14.30;99.90;;;;;;5100632;28;20492;-84
2021/07/02 02:40:23;;;;;;;1999.90;999.90;;;14.20;99.90;;;;;;5101523;28;20449;-84
2021/07/02 02:42:49;;;;;;;1999.90;999.90;;;14.20;99.90;;;;;;5102830;28;20160;-84
2021/07/02 02:45:17;;;;;;;1999.90;999.90;;;14.10;99.90;;;;;;5102019;28;20828;-84
2021/07/02 02:47:48;;;;;;;1999.90;999.90;;;14.10;99.90;;;;;;5083506;28;20651;-85
2021/07/02 02:50:14;;;;;;;1999.90;999.90;;;14.10;99.90;;;;;;5102216;28;20778;-85
2021/07/02 02:52:42;;;;;;;1999.90;999.90;;;14.10;99.90;;;;;;5101819;28;20453;-84
2021/07/02 02:55:09;;;;;;;1999.90;999.90;;;14.10;99.90;;;;;;5102219;28;20437;-84
2021/07/02 02:57:35;;;;;;;1999.90;999.90;;;14.00;99.90;;;;;;5083296;28;20441;-84
2021/07/02 03:00:11;;;;;;;1999.90;999.90;;;14.00;99.90;;;;;;5100097;28;20547;-83
2021/07/02 03:02:40;;;;;;;1999.90;999.90;;;13.90;99.90;;;;;;5097506;28;20139;-82
2021/07/02 03:05:06;;;;;;;1999.90;999.90;;;13.90;99.90;;;;;;5099357;28;20400;-85
2021/07/02 03:07:35;;;;;;;1999.90;999.90;;;13.80;99.90;;;;;;5100776;28;20923;-85
2021/07/02 03:10:01;;;;;;;1999.90;999.90;;;13.80;99.90;;;;;;5100342;28;20440;-85
2021/07/02 03:12:27;;;;;;;1999.90;999.90;;;13.70;99.90;;;;;;5101582;28;20799;-85
2021/07/02 03:14:55;;;;;;;1999.90;999.90;;;13.70;99.90;;;;;;5101298;28;20463;-84
2021/07/02 03:17:24;;;;;;;1999.90;999.90;;;13.70;99.90;;;;;;5100236;28;20452;-85
2021/07/02 03:19:59;;;;;;;1999.90;999.90;;;13.70;99.90;;;;;;5082954;28;20940;-85
2021/07/02 03:22:25;;;;;;;1999.90;999.90;;;13.60;99.90;;;;;;5100805;28;20908;-84
2021/07/02 03:24:59;;;;;;;1999.90;999.90;;;13.50;99.90;;;;;;5100784;28;20397;-84
2021/07/02 03:27:25;;;;;;;1999.90;999.90;;;13.50;99.90;;;;;;5101778;28;20207;-84
2021/07/02 03:29:59;;;;;;;1999.90;999.90;;;13.50;99.90;;;;;;5100819;28;20484;-85
2021/07/02 03:32:25;;;;;;;1999.90;999.90;;;13.50;99.90;;;;;;5101697;28;20242;-85
2021/07/02 03:34:54;;;;;;;1999.90;999.90;;;13.40;99.90;;;;;;5101356;28;20486;-85
2021/07/02 03:37:20;;;;;;;1999.90;999.90;;;13.40;99.90;;;;;;5101038;28;20191;-84
2021/07/02 03:39:45;;;;;;;1999.90;999.90;;;13.40;99.90;;;;;;5101614;28;20421;-85
2021/07/02 03:42:17;;;;;;;1999.90;999.90;;;13.40;99.90;;;;;;5100765;28;20159;-84
2021/07/02 03:44:43;;;;;;;1999.90;999.90;;;13.50;99.90;;;;;;5100152;28;20574;-85
2021/07/02 03:47:09;;;;;;;1999.90;999.90;;;13.50;99.90;;;;;;5100902;28;20404;-84
2021/07/02 03:49:35;;;;;;;1999.90;999.90;;;13.50;99.90;;;;;;5101335;28;20476;-84
2021/07/02 03:52:04;;;;;;;1999.90;999.90;;;13.60;99.90;;;;;;5100641;28;20397;-84
2021/07/02 03:54:32;;;;;;;1999.90;999.90;;;13.50;99.90;;;;;;5082769;28;20172;-85
2021/07/02 03:57:11;;;;;;;1999.90;999.90;;;13.50;99.90;;;;;;5100347;28;20479;-84
2021/07/02 03:59:49;;;;;;;1999.90;999.90;;;13.50;99.90;;;;;;5100955;28;20772;-84
2021/07/02 04:02:19;;;;;;;1999.90;999.90;;;13.50;99.90;;;;;;5082330;28;20408;-84
2021/07/02 04:04:47;;;;;;;1999.90;999.90;;;13.50;99.90;;;;;;5101093;28;20397;-85
2021/07/02 04:07:13;;;;;;;1999.90;999.90;;;13.40;99.90;;;;;;5101205;28;20402;-84
2021/07/02 04:09:40;;;;;;;1999.90;999.90;;;13.40;99.90;;;;;;5082758;28;20425;-84
2021/07/02 04:12:07;;;;;;;1999.90;999.90;;;13.40;99.90;;;;;;5100701;28;20194;-84
2021/07/02 04:14:33;;;;;;;1999.90;999.90;;;13.40;99.90;;;;;;5099704;28;20405;-84
2021/07/02 04:17:08;;;;;;;1999.90;999.90;;;13.40;99.90;;;;;;5100572;28;20445;-84
2021/07/02 04:19:37;;;;;;;1999.90;999.90;;;13.40;99.90;;;;;;5082474;28;20436;-84
2021/07/02 04:22:07;;;;;;;1999.90;999.90;;;13.40;99.90;;;;;;5100251;28;20734;-84
2021/07/02 04:24:33;;;;;;;1999.90;999.90;;;13.30;99.90;;;;;;5082377;28;20402;-84
2021/07/02 04:27:02;;;;;;;1999.90;999.90;;;13.40;99.90;;;;;;5100670;28;20492;-84
2021/07/02 04:29:28;;;;;;;1999.90;999.90;;;13.30;99.90;;;;;;5082410;28;20433;-85
2021/07/02 04:31:56;;;;;;;1999.90;999.90;;;13.40;99.90;;;;;;5098988;28;20772;-85
2021/07/02 04:34:22;;;;;;;1999.90;999.90;;;13.40;99.90;;;;;;5098858;28;20774;-84
2021/07/02 04:36:48;;;;;;;1999.90;999.90;;;13.40;99.90;;;;;;5099999;28;20443;-84
2021/07/02 04:39:19;;;;;;;1999.90;999.90;;;13.40;99.90;;;;;;5099969;28;20927;-85
2021/07/02 04:41:45;;;;;;;1999.90;999.90;;;13.40;99.90;;;;;;5099601;28;20454;-84
2021/07/02 04:44:11;;;;;;;1999.90;999.90;;;13.40;99.90;;;;;;5099664;28;20404;-85
2021/07/02 04:46:37;;;;;;;1999.90;999.90;;;13.40;99.90;;;;;;5100046;28;20159;-84
2021/07/02 04:49:06;;;;;;;1999.90;999.90;;;13.40;99.90;;;;;;5082246;28;20425;-85
2021/07/02 04:51:42;;;;;;;1999.90;999.90;;;13.30;99.90;;;;;;5082228;28;20413;-85
2021/07/02 04:54:08;;;;;;;1999.90;999.90;;;13.30;99.90;;;;;;5100077;28;20374;-85
2021/07/02 04:56:34;;;;;;;1999.90;999.90;;;13.30;99.90;;;;;;5099740;28;20447;-85
2021/07/02 04:59:01;;;;;;;1999.90;999.90;;;13.40;99.90;;;;;;5098998;28;20307;-85
2021/07/02 05:01:48;;;;;;;1999.90;999.90;;;13.60;99.90;;;;;;5099160;28;20807;-85
2021/07/02 05:04:14;;;;;;;1999.90;999.90;;;13.90;99.90;;;;;;5100263;28;20406;-85
2021/07/02 05:06:43;;;;;;;1999.90;999.90;;;14.30;99.90;;;;;;5098940;28;20408;-85
2021/07/02 05:09:11;;;;;;;1999.90;999.90;;;14.60;99.90;;;;;;5098529;28;20222;-85
2021/07/02 05:11:47;;;;;;;1999.90;999.90;;;14.90;99.90;;;;;;5081648;28;20433;-84
2021/07/02 05:14:16;;;;;;;1999.90;999.90;;;15.10;99.90;;;;;;5081733;28;20460;-85
2021/07/02 05:16:42;;;;;;;1999.90;999.90;;;15.30;99.90;;;;;;5099804;28;20441;-84
2021/07/02 05:19:08;;;;;;;1999.90;999.90;;;15.50;99.90;;;;;;5098398;28;20460;-84
2021/07/02 05:21:37;;;;;;;1999.90;999.90;;;15.60;99.90;;;;;;5098310;28;20522;-85
2021/07/02 05:24:03;;;;;;;1999.90;999.90;;;15.70;99.90;;;;;;5099757;28;20406;-85
2021/07/02 05:26:34;;;;;;;1999.90;999.90;;;15.80;99.90;;;;;;5099213;28;20404;-84
2021/07/02 05:29:02;;;;;;;1999.90;999.90;;;15.90;99.90;;;;;;5098324;28;20978;-84
2021/07/02 05:31:28;;;;;;;1999.90;999.90;;;15.90;99.90;;;;;;5099306;28;20761;-84
2021/07/02 05:33:53;;;;;;;1999.90;999.90;;;16.00;99.90;;;;;;5080758;28;20542;-84
2021/07/02 05:36:22;;;;;;;1999.90;999.90;;;16.00;99.90;;;;;;5098655;28;20272;-84
2021/07/02 05:38:51;;;;;;;1999.90;999.90;;;16.10;99.90;;;;;;5098280;28;20531;-84
2021/07/02 05:41:16;;;;;;;1999.90;999.90;;;16.00;99.90;;;;;;5098821;28;20504;-84
2021/07/02 05:43:44;;;;;;;1999.90;999.90;;;16.10;99.90;;;;;;5098200;28;20430;-83
2021/07/02 05:46:12;;;;;;;1999.90;999.90;;;16.10;99.90;;;;;;5095802;28;20643;-83
2021/07/02 05:48:38;;;;;;;1999.90;999.90;;;16.00;99.90;;;;;;5099847;28;20414;-85
2021/07/02 05:51:03;;;;;;;1999.90;999.90;;;16.00;99.90;;;;;;5100963;28;20419;-85
2021/07/02 05:53:29;;;;;;;1999.90;999.90;;;16.00;99.90;;;;;;5101374;28;20162;-86
2021/07/02 05:55:55;;;;;;;1999.90;999.90;;;16.00;99.90;;;;;;5099969;28;20212;-86
2021/07/02 05:58:20;;;;;;;1999.90;999.90;;;16.00;99.90;;;;;;5100801;28;20183;-85
2021/07/02 06:00:46;;;;;;;1999.90;999.90;;;16.00;99.90;;;;;;5082457;28;20188;-85
2021/07/02 06:03:12;;;;;;;1999.90;999.90;;;16.00;99.90;;;;;;5099421;28;20251;-85
2021/07/02 06:05:37;;;;;;;1999.90;999.90;;;16.00;99.90;;;;;;5099002;28;20238;-85
2021/07/02 06:08:05;;;;;;;1999.90;999.90;;;16.00;99.90;;;;;;5097470;28;20164;-85
2021/07/02 06:10:30;;;;;;;1999.90;999.90;;;16.00;99.90;;;;;;5080889;28;20272;-85
2021/07/02 06:12:56;;;;;;;1999.90;999.90;;;16.00;99.90;;;;;;5098915;28;20433;-85
2021/07/02 06:15:22;;;;;;;1999.90;999.90;;;16.10;99.90;;;;;;5080726;28;20166;-85
2021/07/02 06:17:50;;;;;;;1999.90;999.90;;;16.10;99.90;;;;;;5099557;28;20529;-85
2021/07/02 06:20:17;;;;;;;1999.90;999.90;;;16.10;99.90;;;;;;5099169;28;20423;-85
2021/07/02 06:22:43;;;;;;;1999.90;999.90;;;16.20;99.90;;;;;;5081313;28;20400;-85
2021/07/02 06:25:11;;;;;;;1999.90;999.90;;;16.30;99.90;;;;;;5098844;28;20444;-85
2021/07/02 06:27:37;;;;;;;1999.90;999.90;;;16.40;99.90;;;;;;5082314;28;21025;-85
2021/07/02 06:30:06;;;;;;;1999.90;999.90;;;16.60;99.90;;;;;;5098564;28;20511;-85
2021/07/02 06:32:32;;;;;;;1999.90;999.90;;;16.70;99.90;;;;;;5099151;28;20770;-85
2021/07/02 06:34:58;;;;;;;1999.90;999.90;;;16.80;99.90;;;;;;5098951;28;20405;-85
2021/07/02 06:37:23;;;;;;;1999.90;999.90;;;16.80;99.90;;;;;;5098435;28;20849;-85
2021/07/02 06:39:49;;;;;;;1999.90;999.90;;;16.90;99.90;;;;;;5098396;28;20181;-85
2021/07/02 06:42:18;;;;;;;1999.90;999.90;;;17.00;99.90;;;;;;5098029;28;20627;-85
2021/07/02 06:44:43;;;;;;;1999.90;999.90;;;17.00;99.90;;;;;;5098070;28;20159;-85
2021/07/02 06:47:09;;;;;;;1999.90;999.90;;;16.90;99.90;;;;;;5097808;28;20430;-84
2021/07/02 06:49:38;;;;;;;1999.90;999.90;;;16.90;99.90;;;;;;5098468;28;20201;-84
2021/07/02 06:52:10;;;;;;;1999.90;999.90;;;16.90;99.90;;;;;;5097679;28;20263;-83
2021/07/02 06:54:49;;;;;;;1999.90;999.90;;;17.00;99.90;;;;;;5078770;28;20435;-84
2021/07/02 06:57:25;;;;;;;1999.90;999.90;;;17.00;99.90;;;;;;5078535;28;20781;-84
2021/07/02 06:59:51;;;;;;;1999.90;999.90;;;17.00;99.90;;;;;;5093874;28;20436;-83
2021/07/02 07:02:22;;;;;;;1999.90;999.90;;;17.10;99.90;;;;;;5095943;28;20408;-83
2021/07/02 07:35:57;;;;;;;1999.90;999.90;;;16.80;99.90;;;;;;4936344;29;20527;-82
2021/07/02 07:42:18;;;;;;;1999.90;999.90;;;16.80;99.90;;;;;;4929489;29;20945;-82
2021/07/02 07:53:15;;;;;;;1999.90;999.90;;;17.20;99.90;;;;;;4911331;29;20430;-81
2021/07/02 07:56:15;;;;;;;;;;;;;;;;;;;;;
2021/07/02 08:00:20;;;;;;;1999.90;999.90;;;17.80;99.90;;;;;;4937727;29;20769;-81
2021/07/02 08:02:55;;;;;;;1999.90;999.90;;;18.00;99.90;;;;;;4930676;29;21049;-81
2021/07/02 08:44:50;;;;;;;1999.90;999.90;;;20.10;99.90;;;;;;5096121;28;20997;-80
2021/07/02 08:47:41;;;;;;;1999.90;999.90;;;20.20;99.90;;;;;;5094952;28;20413;-79
2021/07/02 08:54:10;;;;;;;1999.90;999.90;;;20.40;99.90;;;;;;5013509;28;20442;-80
2021/07/02 08:56:56;;;;;;;1999.90;999.90;;;20.40;99.90;;;;;;5013621;28;20975;-81
2021/07/02 08:59:33;;;;;;;1999.90;999.90;;;20.40;99.90;;;;;;5076090;22;20485;-80
2021/07/02 09:09:35;;;;;;;;;;;;;;;;;;;;;
2021/07/02 09:16:41;;;;;;;1999.90;999.90;;;20.80;99.90;;;;;;5043073;28;21062;-80
2021/07/02 09:27:06;;;;;;;1999.90;999.90;;;21.30;99.90;;;;;;4977201;28;20406;-79
2021/07/02 09:36:17;;;;;;;;;;;;;;;;;;;;;
2021/07/02 09:58:03;;;;;;;1999.90;999.90;;;21.10;99.90;;;;;;5050272;28;20459;-81
2021/07/02 10:00:44;;;;;;;1999.90;999.90;;;21.30;99.90;;;;;;5096794;28;20514;-81
2021/07/02 10:03:25;;;;;;;1999.90;999.90;;;21.60;99.90;;;;;;5077906;28;20462;-80
2021/07/02 10:13:06;;;;;;;1999.90;999.90;;;22.30;97.30;;;;;;5074217;28;20476;-80
2021/07/02 10:40:46;;;;;;;;;;;;;;;;;;;;;
2021/07/02 10:43:50;;;;;;;;;;;;;;;;;;;;;
2021/07/02 10:47:21;;;;;;;1999.90;999.90;;;23.80;77.80;;;;;;5014299;28;20919;-80
2021/07/02 10:50:11;;;;;;;1999.90;999.90;;;24.00;21.40;;;;;;5006049;28;20432;-80
2021/07/02 10:59:45;;;;;;;1999.90;999.90;;;24.20;51.20;;;;;;5039147;22;20475;-79
2021/07/02 11:02:51;;;;;;;1999.90;999.90;;;24.40;74.00;;;;;;5097319;28;20444;-80
2021/07/02 11:21:18;;;;;;;1999.90;999.90;;;23.90;32.20;;;;;;5129396;22;20476;-79
2021/07/02 11:28:38;;;;;;;;;;;;;;;;;;;;;
2021/07/02 11:40:52;;;;;;;1999.90;999.90;;;23.80;70.10;;;;;;5222894;22;20882;-80
2021/07/02 11:44:39;;;;;;;1999.90;999.90;;;24.50;55.60;;;;;;5086846;28;20393;-80
2021/07/02 11:50:40;;;;;;;1999.90;999.90;;;25.00;15.30;;;;;;5012603;28;20421;-80
2021/07/02 11:53:05;;;;;;;1999.90;999.90;;;25.40;22.50;;;;;;5073894;22;20498;-84
2021/07/02 11:55:31;;;;;;;1999.90;999.90;;;25.60;47.30;;;;;;5100427;28;20435;-85
2021/07/02 11:58:16;;;;;;;1999.90;999.90;;;25.80;21.20;;;;;;5100183;28;20188;-85
2021/07/02 12:01:03;;;;;;;1999.90;999.90;;;25.90;10.40;;;;;;5100315;28;20188;-84
2021/07/02 12:03:29;;;;;;;1999.90;999.90;;;25.70;3.90;;;;;;5099397;28;20437;-84
2021/07/02 12:06:00;;;;;;;1999.90;999.90;;;25.30;2.60;;;;;;5100704;28;20407;-84
2021/07/02 12:08:30;;;;;;;1999.90;999.90;;;25.20;8.30;;;;;;5100374;28;20403;-84
2021/07/02 12:11:02;;;;;;;1999.90;999.90;;;25.00;25.00;;;;;;5082869;28;20430;-84
2021/07/02 12:13:35;;;;;;;1999.90;999.90;;;25.20;11.30;;;;;;5082143;28;20417;-84
2021/07/02 12:16:11;;;;;;;1999.90;999.90;;;25.40;8.70;;;;;;5100281;28;20439;-84
2021/07/02 12:18:40;;;;;;;1999.90;999.90;;;25.50;5.00;;;;;;5081345;28;20416;-84
2021/07/02 12:21:14;;;;;;;1999.90;999.90;;;25.50;2.10;;;;;;5080238;28;20902;-84
2021/07/02 12:23:49;;;;;;;1999.90;999.90;;;25.50;4.20;;;;;;5099571;28;20417;-83
2021/07/02 12:26:42;;;;;;;1999.90;999.90;;;25.50;1.00;;;;;;5098313;28;20406;-83
2021/07/02 12:32:23;;;;;;;1999.90;999.90;;;25.70;5.00;;;;;;5101212;28;20408;-86
2021/07/02 12:35:30;;;;;;;1999.90;999.90;;;26.20;5.00;;;;;;5083717;28;20415;-86
2021/07/02 12:38:22;;;;;;;1999.90;999.90;;;26.50;4.30;;;;;;5093277;28;20481;-85
2021/07/02 12:41:33;;;;;;;1999.90;999.90;;;26.60;1.00;;;;;;5121595;22;20485;-86
2021/07/02 12:47:42;;;;;;;1999.90;999.90;;;26.80;1.00;;;;;;5079840;28;20418;-85
2021/07/02 12:50:53;;;;;;;1999.90;999.90;;;26.60;1.00;;;;;;5068421;28;20560;-86
2021/07/02 12:58:02;;;;;;;1999.90;999.90;;;26.50;1.00;;;;;;4996521;28;20546;-86
2021/07/02 13:00:41;;;;;;;1999.90;999.90;;;26.20;1.00;;;;;;5003819;28;20505;-85
2021/07/02 13:03:23;;;;;;;1999.90;999.90;;;25.90;1.00;;;;;;5048652;28;20406;-85
2021/07/02 13:06:09;;;;;;;1999.90;999.90;;;25.90;1.00;;;;;;5060178;28;20410;-86
2021/07/02 13:08:44;;;;;;;1999.90;999.90;;;25.90;1.00;;;;;;5058991;28;20412;-86
2021/07/02 13:11:21;;;;;;;1999.90;999.90;;;25.80;1.00;;;;;;5078850;28;20409;-86
2021/07/02 13:13:58;;;;;;;1999.90;999.90;;;25.70;1.00;;;;;;5078357;28;20554;-85
2021/07/02 13:16:48;;;;;;;1999.90;999.90;;;25.50;1.00;;;;;;5077128;28;20555;-86
2021/07/02 13:19:45;;;;;;;;;;;;;;;;;;;;;
2021/07/02 13:22:32;;;;;;;;;;;;;;;;;;;;;
2021/07/02 13:25:11;;;;;;;1999.90;999.90;;;24.90;7.00;;;;;;5079940;28;20485;-86
2021/07/02 13:27:40;;;;;;;1999.90;999.90;;;25.00;11.20;;;;;;5061110;28;20451;-86
2021/07/02 13:30:09;;;;;;;1999.90;999.90;;;25.10;8.30;;;;;;5077533;28;20512;-86
2021/07/02 13:32:38;;;;;;;1999.90;999.90;;;25.30;7.70;;;;;;5078646;28;20401;-86
2021/07/02 13:35:46;;;;;;;1999.90;999.90;;;25.40;6.40;;;;;;5078042;28;20413;-86
2021/07/02 13:38:55;;;;;;;;;;;;;;;;;;;;;
2021/07/02 13:42:07;;;;;;;;;;;;;;;;;;;;;
2021/07/02 13:47:38;;;;;;;1999.90;999.90;;;26.20;6.40;;;;;;5013692;28;20459;-85
2021/07/02 13:50:11;;;;;;;1999.90;999.90;;;26.30;3.40;;;;;;5001501;28;20979;-85
2021/07/02 13:52:42;;;;;;;1999.90;999.90;;;26.30;3.30;;;;;;5068726;28;20422;-85
2021/07/02 13:55:08;;;;;;;1999.90;999.90;;;26.30;10.10;;;;;;5071344;28;20477;-86
2021/07/02 13:58:06;;;;;;;1999.90;999.90;;;26.20;3.20;;;;;;5057812;28;20475;-85
2021/07/02 14:01:26;;;;;;;1999.90;999.90;;;25.90;2.80;;;;;;5027052;28;20438;-86
2021/07/02 14:07:26;;;;;;;1999.90;999.90;;;25.20;13.50;;;;;;5041590;28;20803;-86
2021/07/02 14:09:59;;;;;;;1999.90;999.90;;;25.10;14.60;;;;;;5071601;28;20431;-86
2021/07/02 14:12:25;;;;;;;1999.90;999.90;;;25.10;14.70;;;;;;5077907;28;20409;-86
2021/07/02 14:15:26;;;;;;;1999.90;999.90;;;25.30;19.10;;;;;;5061131;28;20415;-86
2021/07/02 14:18:01;;;;;;;1999.90;999.90;;;25.30;13.30;;;;;;5067013;28;20254;-86
2021/07/02 14:21:04;;;;;;;1999.90;999.90;;;25.00;16.20;;;;;;5062678;28;20435;-86
2021/07/02 14:27:27;;;;;;;1999.90;999.90;;;24.50;23.60;;;;;;5022941;28;20429;-86
2021/07/02 14:30:15;;;;;;;1999.90;999.90;;;24.40;30.80;;;;;;5082756;28;20458;-86
2021/07/02 14:32:48;;;;;;;1999.90;999.90;;;24.40;48.90;;;;;;5067525;28;20437;-86
2021/07/02 14:35:21;;;;;;;1999.90;999.90;;;24.50;51.10;;;;;;5067378;28;20432;-87
2021/07/02 14:37:50;;;;;;;1999.90;999.90;;;24.50;40.70;;;;;;5066978;28;20442;-87
2021/07/02 14:40:27;;;;;;;1999.90;999.90;;;24.50;56.90;;;;;;5083071;28;20472;-87
2021/07/02 14:43:10;;;;;;;1999.90;999.90;;;24.20;67.50;;;;;;5084570;28;20407;-85
2021/07/02 14:45:45;;;;;;;1999.90;999.90;;;24.00;74.20;;;;;;5065823;28;20456;-84
2021/07/02 14:48:13;;;;;;;1999.90;999.90;;;23.70;83.30;;;;;;5080185;28;20402;-83
2021/07/02 14:51:12;;;;;;;1999.90;999.90;;;23.70;81.10;;;;;;5078882;28;20762;-84
2021/07/02 14:53:52;;;;;;;1999.90;999.90;;;23.70;88.10;;;;;;5063251;28;20434;-85
2021/07/02 14:56:39;;;;;;;1999.90;999.90;;;23.80;84.50;;;;;;5067568;28;20941;-85
2021/07/02 15:00:04;;;;;;;1999.90;999.90;;;24.10;91.60;;;;;;5084492;28;20480;-86
2021/07/02 15:02:39;;;;;;;1999.90;999.90;;;24.50;66.00;;;;;;5081838;28;20410;-86
2021/07/02 15:05:50;;;;;;;1999.90;999.90;;;24.60;56.60;;;;;;5067415;28;20398;-87
2021/07/02 15:11:28;;;;;;;1999.90;999.90;;;24.70;79.50;;;;;;5136321;22;20509;-86
2021/07/02 15:14:34;;;;;;;1999.90;999.90;;;24.50;80.20;;;;;;5099367;28;20401;-86
2021/07/02 15:17:13;;;;;;;;;;;;;;;;;;;;;
2021/07/02 15:19:47;;;;;;;1999.90;999.90;;;24.90;64.90;;;;;;5111475;22;20470;-87
2021/07/02 15:22:22;;;;;;;1999.90;999.90;;;24.80;54.00;;;;;;5101173;28;20385;-86
2021/07/02 15:25:01;;;;;;;1999.90;999.90;;;25.00;62.50;;;;;;5100318;28;20768;-87
2021/07/02 15:28:15;;;;;;;1999.90;999.90;;;25.30;66.60;;;;;;5100669;28;20400;-86
2021/07/02 15:41:42;;;;;;;1999.90;999.90;;;25.70;21.40;;;;;;4900344;29;20816;-85
2021/07/02 15:44:44;;;;;;;1999.90;999.90;;;26.60;19.60;;;;;;4920344;29;20462;-85
2021/07/02 15:51:57;;;;;;;1999.90;999.90;;;26.20;11.30;;;;;;4899672;29;20520;-86
2021/07/02 15:55:16;;;;;;;1999.90;999.90;;;26.90;9.80;;;;;;4864657;29;20418;-86
2021/07/02 16:02:21;;;;;;;1999.90;999.90;;;28.10;1.00;;;;;;4808285;29;20414;-86
2021/07/02 16:04:49;;;;;;;1999.90;999.90;;;28.80;1.00;;;;;;4732000;30;20427;-86
2021/07/02 16:11:21;;;;;;;1999.90;999.90;;;28.40;1.00;;;;;;4787780;29;20440;-86
2021/07/02 16:14:12;;;;;;;1999.90;999.90;;;28.50;1.00;;;;;;4875586;29;20418;-85
2021/07/02 16:17:07;;;;;;;1999.90;999.90;;;28.10;1.00;;;;;;4976816;28;20460;-85
2021/07/02 16:19:41;;;;;;;1999.90;999.90;;;28.00;1.00;;;;;;4982608;28;20453;-85
2021/07/02 16:22:17;;;;;;;;;;;;;;;;;;;;;
2021/07/02 16:25:08;;;;;;;1999.90;999.90;;;28.60;1.00;;;;;;5096351;28;20421;-86
2021/07/02 16:28:22;;;;;;;1999.90;999.90;;;29.30;1.00;;;;;;5095503;28;20798;-86
2021/07/02 16:31:01;;;;;;;1999.90;999.90;;;29.80;1.00;;;;;;5071559;28;20437;-86
2021/07/02 16:34:06;;;;;;;1999.90;999.90;;;29.70;1.00;;;;;;5077583;28;20469;-86
2021/07/02 16:36:38;;;;;;;1999.90;999.90;;;29.10;1.00;;;;;;5078798;28;20406;-86
2021/07/02 16:39:16;;;;;;;1999.90;999.90;;;28.60;1.00;;;;;;5074476;28;20517;-86
2021/07/02 16:46:38;;;;;;;1999.90;999.90;;;29.50;1.00;;;;;;5033654;28;20396;-86
2021/07/02 16:51:17;;;;;;;1999.90;999.90;;;29.90;1.00;;;;;;5234108;22;20492;-86
2021/07/02 16:53:59;;;;;;;1999.90;999.90;;;29.90;1.00;;;;;;5095785;28;20415;-86
2021/07/02 16:56:49;;;;;;;1999.90;999.90;;;29.80;1.00;;;;;;5093233;28;20771;-86
2021/07/02 17:00:30;;;;;;;1999.90;999.90;;;30.00;1.00;;;;;;5077267;28;20425;-86
2021/07/02 17:06:43;;;;;;;1999.90;999.90;;;30.30;1.00;;;;;;4934433;29;20523;-86
2021/07/02 17:32:37;;;;;;;1999.90;999.90;;;29.60;1.00;;;;;;4767626;26;20845;-87
2021/07/02 17:55:22;;;;;;;1999.90;999.90;;;27.70;1.00;;;;;;5055732;28;20466;-85
2021/07/02 17:57:47;;;;;;;1999.90;999.90;;;27.50;1.00;;;;;;5056466;28;20438;-85
2021/07/02 18:00:13;;;;;;;1999.90;999.90;;;27.30;1.00;;;;;;5057595;28;20187;-84